Welkom op de weersite van Veghel e.o.

Webcam Veghel  Webcam Veghel


Steenuil Veghel  Steenuil Veghel


Onweer radar Meer informatie blitzortung!


Regen radar Meer informatie rain snow radar


U vindt ons ook hier:

Het Weer Aktueel

European Weather Network

Benelux Weer Netwerk

AWEKAS


METAR rapporten vliegvelden

   
EHAM - Amsterdam
Gewijzigd: 26-01-2022 15:25
Bewolking  
Bewolking  
   Wind: WZW 14.8 km/h
Wind: WZW 14.8 km/h
Temperatuur: 7°C
Voelt als: 4°C
Dauwpunt: 4°C
Vochtigheid: 81%
Barometer: 1030 hPa
Bewolking: Overcast
Zicht: meer dan 10 km
Bewolking: Licht bewolkt 1400 ft,
Gedeeltelijk bewolkt 1600 ft,
Bewolking 2200 ft
EHAM 261425Z 24008KT 9999 FEW014 SCT016 OVC022 07/04 Q1030 TEMPO BKN016
EHEH - Eindhoven
Gewijzigd: 26-01-2022 15:26
Nevel, Bewolking  
Nevel, Bewolking  
   Wind: ZW 20.4 km/h
Wind: ZW 20.4 km/h
Temperatuur: 4°C
Voelt als: 0°C
Dauwpunt: 2°C
Vochtigheid: 87%
Barometer: 1031 hPa
Bewolking: Overcast
Zicht: 5 km
Bewolking: Licht bewolkt 1100 ft,
Bewolking 1400 ft
EHEH 261426Z AUTO 22011KT 5000 BR FEW011 OVC014 04/02 Q1031 GRN TEMPO SCT008 OVC014
EHGR - Gilze/Rijen
Gewijzigd: 26-01-2022 15:25
Nevel, Bewolking  
Nevel, Bewolking  
   Wind: ZW 14.8 km/h
Wind: ZW 14.8 km/h
Temperatuur: 4°C
Voelt als: 1°C
Dauwpunt: 1°C
Vochtigheid: 81%
Barometer: 1031 hPa
Bewolking: Overcast
Zicht: 6 km
Bewolking: Bewolking 1900 ft
EHGR 261425Z AUTO 22008KT 200V260 6000 BR OVC019 04/01 Q1031 WHT NOSIG
EHBK - Maastricht
Gewijzigd: 26-01-2022 15:25
Nevel, Bewolking  
Nevel, Bewolking  
   Wind: ZW 18.5 km/h
Wind: ZW 18.5 km/h
Temperatuur: 2°C
Voelt als: -2°C
Dauwpunt: 1°C
Vochtigheid: 93%
Barometer: 1032 hPa
Bewolking: Overcast
Zicht: 3 km
Bewolking: Grotendeels bewolkt 700 ft,
Bewolking 800 ft
EHBK 261425Z AUTO 22010KT 3100 BR BKN007 OVC008 02/01 Q1032 TEMPO BKN012
EHVK - Volkel
Gewijzigd: 26-01-2022 15:25
Nevel, Bewolking  
Nevel, Bewolking  
   Wind: ZW 20.4 km/h
Wind: ZW 20.4 km/h
Temperatuur: 4°C
Voelt als: 0°C
Dauwpunt: 2°C
Vochtigheid: 87%
Barometer: 1031 hPa
Bewolking: Overcast
Zicht: 5 km
Bewolking: Grotendeels bewolkt 1000 ft,
Grotendeels bewolkt 1300 ft,
Bewolking 1800 ft
EHVK 261425Z AUTO 23011KT 200V260 5000 BR BKN010 BKN013 OVC018 04/02 Q1031 GRN BECMG 6000 NSW SCT012 BKN015
EHFS - Vlissingen
Gewijzigd: 26-01-2022 15:25
Bewolking  
Bewolking  
   Wind: ZZW 22.2 km/h
Wind: ZZW 22.2 km/h
Temperatuur: 5°C
Voelt als: 1°C
Dauwpunt: 3°C
Vochtigheid: 87%
Barometer: 1031 hPa
Bewolking: Overcast
Zicht: 6 km
Bewolking: Bewolking 1600 ft
EHFS 261425Z AUTO 21012KT 6000 OVC016/// 05/03 Q1031

Script ontwikkeld door  Saratoga-weather.org Aangepast voor de template door  Weerstation Leuven

Apparatuur in gebruik:

Weerstation
Davis VP2

Weerprogramma
WeatherLink

Weercomputer
Sponsor

Webleverancier
My provider

Davis VP2

WeatherLink

Sponsor

My provider